sensor_id;sensor_type;location;lat;lon;timestamp;P1;durP1;ratioP1;P2;durP2;ratioP2
21424;SDS011;10873;51.132;16.848;2023-07-20T00:00:52;5.20;;;2.22;;
21424;SDS011;10873;51.132;16.848;2023-07-20T00:03:30;3.58;;;2.22;;
21424;SDS011;10873;51.132;16.848;2023-07-20T00:05:56;4.35;;;2.35;;
21424;SDS011;10873;51.132;16.848;2023-07-20T00:08:22;2.60;;;1.98;;
21424;SDS011;10873;51.132;16.848;2023-07-20T00:10:48;3.58;;;2.20;;
21424;SDS011;10873;51.132;16.848;2023-07-20T00:13:16;3.65;;;2.30;;
21424;SDS011;10873;51.132;16.848;2023-07-20T00:15:44;3.35;;;2.13;;
21424;SDS011;10873;51.132;16.848;2023-07-20T00:18:10;3.90;;;2.17;;
21424;SDS011;10873;51.132;16.848;2023-07-20T00:20:36;3.33;;;2.20;;
21424;SDS011;10873;51.132;16.848;2023-07-20T00:23:02;3.20;;;2.05;;
21424;SDS011;10873;51.132;16.848;2023-07-20T00:25:28;4.28;;;2.38;;
21424;SDS011;10873;51.132;16.848;2023-07-20T00:27:54;3.17;;;1.95;;
21424;SDS011;10873;51.132;16.848;2023-07-20T00:30:22;3.38;;;1.95;;
21424;SDS011;10873;51.132;16.848;2023-07-20T00:32:48;3.65;;;2.15;;
21424;SDS011;10873;51.132;16.848;2023-07-20T00:35:14;4.22;;;2.30;;
21424;SDS011;10873;51.132;16.848;2023-07-20T00:37:40;3.30;;;2.33;;
21424;SDS011;10873;51.132;16.848;2023-07-20T00:40:06;2.50;;;1.90;;
21424;SDS011;10873;51.132;16.848;2023-07-20T00:42:32;2.95;;;2.08;;
21424;SDS011;10873;51.132;16.848;2023-07-20T00:44:59;3.67;;;2.00;;
21424;SDS011;10873;51.132;16.848;2023-07-20T00:47:27;2.83;;;2.08;;
21424;SDS011;10873;51.132;16.848;2023-07-20T00:49:53;5.30;;;1.70;;
21424;SDS011;10873;51.132;16.848;2023-07-20T00:52:20;3.42;;;1.80;;
21424;SDS011;10873;51.132;16.848;2023-07-20T00:54:48;3.35;;;1.85;;
21424;SDS011;10873;51.132;16.848;2023-07-20T00:57:15;3.55;;;1.98;;
21424;SDS011;10873;51.132;16.848;2023-07-20T00:59:43;1.98;;;1.60;;
21424;SDS011;10873;51.132;16.848;2023-07-20T01:02:09;3.03;;;1.90;;
21424;SDS011;10873;51.132;16.848;2023-07-20T01:04:36;2.78;;;1.40;;
21424;SDS011;10873;51.132;16.848;2023-07-20T01:07:06;3.90;;;1.52;;
21424;SDS011;10873;51.132;16.848;2023-07-20T01:09:39;2.00;;;1.55;;
21424;SDS011;10873;51.132;16.848;2023-07-20T01:12:12;2.50;;;1.63;;
21424;SDS011;10873;51.132;16.848;2023-07-20T01:14:44;4.00;;;1.80;;
21424;SDS011;10873;51.132;16.848;2023-07-20T01:17:10;1.83;;;1.50;;
21424;SDS011;10873;51.132;16.848;2023-07-20T01:19:39;2.65;;;1.65;;
21424;SDS011;10873;51.132;16.848;2023-07-20T01:22:08;2.60;;;1.65;;
21424;SDS011;10873;51.132;16.848;2023-07-20T01:24:50;3.05;;;1.30;;
21424;SDS011;10873;51.132;16.848;2023-07-20T01:27:43;3.80;;;1.80;;
21424;SDS011;10873;51.132;16.848;2023-07-20T01:30:26;2.67;;;1.70;;
21424;SDS011;10873;51.132;16.848;2023-07-20T01:33:06;3.05;;;1.90;;
21424;SDS011;10873;51.132;16.848;2023-07-20T01:35:33;2.58;;;1.60;;
21424;SDS011;10873;51.132;16.848;2023-07-20T01:38:01;2.53;;;1.50;;
21424;SDS011;10873;51.132;16.848;2023-07-20T01:40:29;4.97;;;1.77;;
21424;SDS011;10873;51.132;16.848;2023-07-20T01:42:55;2.15;;;1.40;;
21424;SDS011;10873;51.132;16.848;2023-07-20T01:45:21;2.55;;;1.58;;
21424;SDS011;10873;51.132;16.848;2023-07-20T01:47:47;4.00;;;1.80;;
21424;SDS011;10873;51.132;16.848;2023-07-20T01:50:15;2.90;;;1.80;;
21424;SDS011;10873;51.132;16.848;2023-07-20T01:52:41;2.13;;;1.70;;
21424;SDS011;10873;51.132;16.848;2023-07-20T01:55:07;1.65;;;1.45;;
21424;SDS011;10873;51.132;16.848;2023-07-20T01:57:33;3.25;;;1.92;;
21424;SDS011;10873;51.132;16.848;2023-07-20T02:00:00;2.10;;;1.25;;
21424;SDS011;10873;51.132;16.848;2023-07-20T02:02:26;3.53;;;1.73;;
21424;SDS011;10873;51.132;16.848;2023-07-20T02:04:55;2.78;;;1.75;;
21424;SDS011;10873;51.132;16.848;2023-07-20T02:07:23;1.88;;;1.40;;
21424;SDS011;10873;51.132;16.848;2023-07-20T02:09:49;2.00;;;1.55;;
21424;SDS011;10873;51.132;16.848;2023-07-20T02:12:15;3.60;;;1.42;;
21424;SDS011;10873;51.132;16.848;2023-07-20T02:14:41;2.03;;;1.35;;
21424;SDS011;10873;51.132;16.848;2023-07-20T02:17:07;1.92;;;1.55;;
21424;SDS011;10873;51.132;16.848;2023-07-20T02:19:36;3.55;;;1.27;;
21424;SDS011;10873;51.132;16.848;2023-07-20T02:22:02;1.70;;;1.45;;
21424;SDS011;10873;51.132;16.848;2023-07-20T02:24:30;1.73;;;1.30;;
21424;SDS011;10873;51.132;16.848;2023-07-20T02:26:56;1.30;;;1.20;;
21424;SDS011;10873;51.132;16.848;2023-07-20T02:29:22;1.55;;;1.20;;
21424;SDS011;10873;51.132;16.848;2023-07-20T02:31:48;1.67;;;1.48;;
21424;SDS011;10873;51.132;16.848;2023-07-20T02:34:14;3.13;;;1.30;;
21424;SDS011;10873;51.132;16.848;2023-07-20T02:36:40;4.85;;;1.33;;
21424;SDS011;10873;51.132;16.848;2023-07-20T02:39:08;2.05;;;1.45;;
21424;SDS011;10873;51.132;16.848;2023-07-20T02:41:35;2.05;;;1.40;;
21424;SDS011;10873;51.132;16.848;2023-07-20T02:44:01;2.20;;;1.50;;
21424;SDS011;10873;51.132;16.848;2023-07-20T02:46:28;3.20;;;1.27;;
21424;SDS011;10873;51.132;16.848;2023-07-20T02:48:55;2.05;;;1.50;;
21424;SDS011;10873;51.132;16.848;2023-07-20T02:51:21;2.30;;;1.50;;
21424;SDS011;10873;51.132;16.848;2023-07-20T02:53:47;1.65;;;1.38;;
21424;SDS011;10873;51.132;16.848;2023-07-20T02:56:13;2.08;;;1.40;;
21424;SDS011;10873;51.132;16.848;2023-07-20T02:58:42;3.70;;;1.60;;
21424;SDS011;10873;51.132;16.848;2023-07-20T03:01:14;2.35;;;1.67;;
21424;SDS011;10873;51.132;16.848;2023-07-20T03:03:40;2.53;;;1.40;;
21424;SDS011;10873;51.132;16.848;2023-07-20T03:06:11;1.60;;;1.48;;
21424;SDS011;10873;51.132;16.848;2023-07-20T03:08:38;1.58;;;1.40;;
21424;SDS011;10873;51.132;16.848;2023-07-20T03:11:04;2.30;;;1.50;;
21424;SDS011;10873;51.132;16.848;2023-07-20T03:13:30;1.73;;;1.30;;
21424;SDS011;10873;51.132;16.848;2023-07-20T03:15:57;2.00;;;1.38;;
21424;SDS011;10873;51.132;16.848;2023-07-20T03:18:23;2.03;;;1.35;;
21424;SDS011;10873;51.132;16.848;2023-07-20T03:20:49;3.60;;;1.38;;
21424;SDS011;10873;51.132;16.848;2023-07-20T03:23:15;1.50;;;1.30;;
21424;SDS011;10873;51.132;16.848;2023-07-20T03:25:42;2.58;;;1.50;;
21424;SDS011;10873;51.132;16.848;2023-07-20T03:28:08;2.92;;;1.45;;
21424;SDS011;10873;51.132;16.848;2023-07-20T03:30:34;2.50;;;1.60;;
21424;SDS011;10873;51.132;16.848;2023-07-20T03:33:02;3.13;;;1.70;;
21424;SDS011;10873;51.132;16.848;2023-07-20T03:35:28;2.90;;;1.50;;
21424;SDS011;10873;51.132;16.848;2023-07-20T03:37:54;2.85;;;1.60;;
21424;SDS011;10873;51.132;16.848;2023-07-20T03:40:20;2.35;;;1.63;;
21424;SDS011;10873;51.132;16.848;2023-07-20T03:42:46;3.17;;;1.80;;
21424;SDS011;10873;51.132;16.848;2023-07-20T03:45:12;2.65;;;1.85;;
21424;SDS011;10873;51.132;16.848;2023-07-20T03:47:38;3.20;;;1.70;;
21424;SDS011;10873;51.132;16.848;2023-07-20T03:50:06;2.92;;;1.60;;
21424;SDS011;10873;51.132;16.848;2023-07-20T03:52:35;2.58;;;1.48;;
21424;SDS011;10873;51.132;16.848;2023-07-20T03:55:01;3.17;;;1.83;;
21424;SDS011;10873;51.132;16.848;2023-07-20T03:57:27;5.25;;;1.70;;
21424;SDS011;10873;51.132;16.848;2023-07-20T03:59:53;2.35;;;1.65;;
21424;SDS011;10873;51.132;16.848;2023-07-20T04:02:21;3.33;;;1.70;;
21424;SDS011;10873;51.132;16.848;2023-07-20T04:04:46;2.45;;;1.70;;
21424;SDS011;10873;51.132;16.848;2023-07-20T04:07:14;2.42;;;1.73;;
21424;SDS011;10873;51.132;16.848;2023-07-20T04:09:40;3.47;;;1.58;;
21424;SDS011;10873;51.132;16.848;2023-07-20T04:12:07;5.22;;;1.58;;
21424;SDS011;10873;51.132;16.848;2023-07-20T04:14:33;3.92;;;2.03;;
21424;SDS011;10873;51.132;16.848;2023-07-20T04:16:59;3.78;;;2.17;;
21424;SDS011;10873;51.132;16.848;2023-07-20T04:19:25;3.70;;;2.20;;
21424;SDS011;10873;51.132;16.848;2023-07-20T04:21:51;2.50;;;2.08;;
21424;SDS011;10873;51.132;16.848;2023-07-20T04:24:19;3.20;;;2.28;;
21424;SDS011;10873;51.132;16.848;2023-07-20T04:26:45;4.60;;;2.40;;
21424;SDS011;10873;51.132;16.848;2023-07-20T04:29:11;4.90;;;2.17;;
21424;SDS011;10873;51.132;16.848;2023-07-20T04:31:37;5.43;;;2.42;;
21424;SDS011;10873;51.132;16.848;2023-07-20T04:34:03;5.28;;;2.53;;
21424;SDS011;10873;51.132;16.848;2023-07-20T04:36:29;4.97;;;2.40;;
21424;SDS011;10873;51.132;16.848;2023-07-20T04:38:55;6.05;;;2.38;;
21424;SDS011;10873;51.132;16.848;2023-07-20T04:41:22;7.72;;;2.85;;
21424;SDS011;10873;51.132;16.848;2023-07-20T04:43:50;5.45;;;2.42;;
21424;SDS011;10873;51.132;16.848;2023-07-20T04:46:16;5.20;;;2.80;;
21424;SDS011;10873;51.132;16.848;2023-07-20T04:48:44;6.43;;;3.38;;
21424;SDS011;10873;51.132;16.848;2023-07-20T04:51:10;10.77;;;4.82;;
21424;SDS011;10873;51.132;16.848;2023-07-20T04:53:36;8.30;;;5.00;;
21424;SDS011;10873;51.132;16.848;2023-07-20T04:56:03;8.95;;;3.92;;
21424;SDS011;10873;51.132;16.848;2023-07-20T04:58:30;9.40;;;3.95;;
21424;SDS011;10873;51.132;16.848;2023-07-20T05:00:56;11.70;;;4.03;;
21424;SDS011;10873;51.132;16.848;2023-07-20T05:03:22;9.60;;;3.60;;
21424;SDS011;10873;51.132;16.848;2023-07-20T05:05:48;7.25;;;3.15;;
21424;SDS011;10873;51.132;16.848;2023-07-20T05:08:15;6.28;;;2.35;;
21424;SDS011;10873;51.132;16.848;2023-07-20T05:10:41;4.53;;;2.40;;
21424;SDS011;10873;51.132;16.848;2023-07-20T05:13:07;5.70;;;2.38;;
21424;SDS011;10873;51.132;16.848;2023-07-20T05:15:35;8.52;;;2.50;;
21424;SDS011;10873;51.132;16.848;2023-07-20T05:18:01;9.88;;;2.35;;
21424;SDS011;10873;51.132;16.848;2023-07-20T05:20:27;5.35;;;2.20;;
21424;SDS011;10873;51.132;16.848;2023-07-20T05:22:53;7.22;;;2.15;;
21424;SDS011;10873;51.132;16.848;2023-07-20T05:25:19;8.25;;;2.75;;
21424;SDS011;10873;51.132;16.848;2023-07-20T05:27:47;7.50;;;2.28;;
21424;SDS011;10873;51.132;16.848;2023-07-20T05:30:14;8.38;;;2.78;;
21424;SDS011;10873;51.132;16.848;2023-07-20T05:32:41;10.55;;;2.70;;
21424;SDS011;10873;51.132;16.848;2023-07-20T05:35:07;7.15;;;2.75;;
21424;SDS011;10873;51.132;16.848;2023-07-20T05:37:34;10.77;;;2.65;;
21424;SDS011;10873;51.132;16.848;2023-07-20T05:40:00;11.02;;;2.92;;
21424;SDS011;10873;51.132;16.848;2023-07-20T05:42:26;7.57;;;2.60;;
21424;SDS011;10873;51.132;16.848;2023-07-20T05:44:52;8.52;;;3.15;;
21424;SDS011;10873;51.132;16.848;2023-07-20T05:47:19;8.90;;;3.08;;
21424;SDS011;10873;51.132;16.848;2023-07-20T05:49:47;7.78;;;3.33;;
21424;SDS011;10873;51.132;16.848;2023-07-20T05:52:12;11.32;;;3.33;;
21424;SDS011;10873;51.132;16.848;2023-07-20T05:54:39;13.23;;;3.38;;
21424;SDS011;10873;51.132;16.848;2023-07-20T05:57:05;11.50;;;3.20;;
21424;SDS011;10873;51.132;16.848;2023-07-20T05:59:31;9.90;;;3.00;;
21424;SDS011;10873;51.132;16.848;2023-07-20T06:01:57;10.25;;;2.72;;
21424;SDS011;10873;51.132;16.848;2023-07-20T06:04:23;8.38;;;3.10;;
21424;SDS011;10873;51.132;16.848;2023-07-20T06:06:50;12.45;;;4.10;;
21424;SDS011;10873;51.132;16.848;2023-07-20T06:09:16;20.30;;;6.22;;
21424;SDS011;10873;51.132;16.848;2023-07-20T06:11:42;23.50;;;10.52;;
21424;SDS011;10873;51.132;16.848;2023-07-20T06:14:08;30.75;;;11.27;;
21424;SDS011;10873;51.132;16.848;2023-07-20T06:16:34;32.35;;;12.23;;
21424;SDS011;10873;51.132;16.848;2023-07-20T06:19:01;34.88;;;16.30;;
21424;SDS011;10873;51.132;16.848;2023-07-20T06:21:26;36.15;;;18.10;;
21424;SDS011;10873;51.132;16.848;2023-07-20T06:23:54;31.63;;;13.85;;
21424;SDS011;10873;51.132;16.848;2023-07-20T06:26:20;27.25;;;12.88;;
21424;SDS011;10873;51.132;16.848;2023-07-20T06:28:46;25.63;;;13.10;;
21424;SDS011;10873;51.132;16.848;2023-07-20T06:31:12;31.02;;;12.60;;
21424;SDS011;10873;51.132;16.848;2023-07-20T06:33:38;30.50;;;12.18;;
21424;SDS011;10873;51.132;16.848;2023-07-20T06:36:04;19.65;;;9.70;;
21424;SDS011;10873;51.132;16.848;2023-07-20T06:38:30;28.75;;;12.52;;
21424;SDS011;10873;51.132;16.848;2023-07-20T06:40:58;24.15;;;11.07;;
21424;SDS011;10873;51.132;16.848;2023-07-20T06:43:24;23.48;;;9.90;;
21424;SDS011;10873;51.132;16.848;2023-07-20T06:45:53;30.52;;;10.52;;
21424;SDS011;10873;51.132;16.848;2023-07-20T06:48:19;126.63;;;24.80;;
21424;SDS011;10873;51.132;16.848;2023-07-20T06:50:46;101.68;;;21.15;;
21424;SDS011;10873;51.132;16.848;2023-07-20T06:53:12;39.78;;;11.60;;
21424;SDS011;10873;51.132;16.848;2023-07-20T06:55:38;24.52;;;8.73;;
21424;SDS011;10873;51.132;16.848;2023-07-20T06:58:06;25.60;;;7.53;;
21424;SDS011;10873;51.132;16.848;2023-07-20T07:00:32;23.30;;;6.30;;
21424;SDS011;10873;51.132;16.848;2023-07-20T07:02:58;17.85;;;5.97;;
21424;SDS011;10873;51.132;16.848;2023-07-20T07:05:24;12.13;;;4.47;;
21424;SDS011;10873;51.132;16.848;2023-07-20T07:07:51;20.08;;;4.93;;
21424;SDS011;10873;51.132;16.848;2023-07-20T07:10:17;21.25;;;4.68;;
21424;SDS011;10873;51.132;16.848;2023-07-20T07:12:43;10.85;;;3.90;;
21424;SDS011;10873;51.132;16.848;2023-07-20T07:15:11;8.52;;;3.38;;
21424;SDS011;10873;51.132;16.848;2023-07-20T07:17:37;10.43;;;3.58;;
21424;SDS011;10873;51.132;16.848;2023-07-20T07:20:04;9.63;;;3.38;;
21424;SDS011;10873;51.132;16.848;2023-07-20T07:22:31;7.07;;;2.65;;
21424;SDS011;10873;51.132;16.848;2023-07-20T07:24:56;11.38;;;2.90;;
21424;SDS011;10873;51.132;16.848;2023-07-20T07:27:23;10.50;;;3.03;;
21424;SDS011;10873;51.132;16.848;2023-07-20T07:29:49;9.80;;;2.80;;
21424;SDS011;10873;51.132;16.848;2023-07-20T07:32:16;7.45;;;2.40;;
21424;SDS011;10873;51.132;16.848;2023-07-20T07:34:43;5.07;;;2.40;;
21424;SDS011;10873;51.132;16.848;2023-07-20T07:37:11;4.43;;;2.25;;
21424;SDS011;10873;51.132;16.848;2023-07-20T07:39:38;3.63;;;1.95;;
21424;SDS011;10873;51.132;16.848;2023-07-20T07:42:04;3.83;;;2.05;;
21424;SDS011;10873;51.132;16.848;2023-07-20T07:44:31;7.20;;;2.10;;
21424;SDS011;10873;51.132;16.848;2023-07-20T07:46:57;15.05;;;4.32;;
21424;SDS011;10873;51.132;16.848;2023-07-20T07:49:24;13.02;;;4.30;;
21424;SDS011;10873;51.132;16.848;2023-07-20T07:51:53;28.60;;;6.10;;
21424;SDS011;10873;51.132;16.848;2023-07-20T07:54:19;18.38;;;5.57;;
21424;SDS011;10873;51.132;16.848;2023-07-20T07:56:45;23.42;;;4.55;;
21424;SDS011;10873;51.132;16.848;2023-07-20T07:59:11;88.10;;;7.07;;
21424;SDS011;10873;51.132;16.848;2023-07-20T08:01:38;72.20;;;7.05;;
21424;SDS011;10873;51.132;16.848;2023-07-20T08:04:04;48.15;;;7.72;;
21424;SDS011;10873;51.132;16.848;2023-07-20T08:06:31;41.45;;;6.60;;
21424;SDS011;10873;51.132;16.848;2023-07-20T08:08:57;66.80;;;8.10;;
21424;SDS011;10873;51.132;16.848;2023-07-20T08:11:24;30.05;;;5.28;;
21424;SDS011;10873;51.132;16.848;2023-07-20T08:13:49;27.63;;;5.45;;
21424;SDS011;10873;51.132;16.848;2023-07-20T08:16:16;24.02;;;5.50;;
21424;SDS011;10873;51.132;16.848;2023-07-20T08:18:43;14.43;;;4.40;;
21424;SDS011;10873;51.132;16.848;2023-07-20T08:21:11;9.02;;;3.33;;
21424;SDS011;10873;51.132;16.848;2023-07-20T08:23:38;10.52;;;3.03;;
21424;SDS011;10873;51.132;16.848;2023-07-20T08:26:04;9.43;;;3.25;;
21424;SDS011;10873;51.132;16.848;2023-07-20T08:28:30;21.02;;;3.55;;
21424;SDS011;10873;51.132;16.848;2023-07-20T08:30:57;18.35;;;3.10;;
21424;SDS011;10873;51.132;16.848;2023-07-20T08:33:23;10.00;;;2.80;;
21424;SDS011;10873;51.132;16.848;2023-07-20T08:35:50;5.22;;;2.40;;
21424;SDS011;10873;51.132;16.848;2023-07-20T08:38:16;4.82;;;1.92;;
21424;SDS011;10873;51.132;16.848;2023-07-20T08:40:43;8.73;;;2.00;;
21424;SDS011;10873;51.132;16.848;2023-07-20T08:43:10;5.03;;;1.98;;
21424;SDS011;10873;51.132;16.848;2023-07-20T08:45:38;4.15;;;1.75;;
21424;SDS011;10873;51.132;16.848;2023-07-20T08:48:06;5.75;;;1.73;;
21424;SDS011;10873;51.132;16.848;2023-07-20T08:50:41;4.30;;;1.50;;
21424;SDS011;10873;51.132;16.848;2023-07-20T08:53:12;2.83;;;1.52;;
21424;SDS011;10873;51.132;16.848;2023-07-20T08:55:39;2.53;;;1.50;;
21424;SDS011;10873;51.132;16.848;2023-07-20T08:58:10;4.35;;;1.92;;
21424;SDS011;10873;51.132;16.848;2023-07-20T09:00:38;7.68;;;2.90;;
21424;SDS011;10873;51.132;16.848;2023-07-20T09:03:10;8.93;;;3.30;;
21424;SDS011;10873;51.132;16.848;2023-07-20T09:05:36;14.77;;;4.00;;
21424;SDS011;10873;51.132;16.848;2023-07-20T09:08:04;7.95;;;3.30;;
21424;SDS011;10873;51.132;16.848;2023-07-20T09:10:31;9.32;;;3.25;;
21424;SDS011;10873;51.132;16.848;2023-07-20T09:12:56;6.93;;;3.03;;
21424;SDS011;10873;51.132;16.848;2023-07-20T09:15:28;7.43;;;3.10;;
21424;SDS011;10873;51.132;16.848;2023-07-20T09:18:00;13.00;;;3.20;;
21424;SDS011;10873;51.132;16.848;2023-07-20T09:20:31;10.00;;;2.97;;
21424;SDS011;10873;51.132;16.848;2023-07-20T09:22:59;14.48;;;3.88;;
21424;SDS011;10873;51.132;16.848;2023-07-20T09:25:25;12.35;;;3.28;;
21424;SDS011;10873;51.132;16.848;2023-07-20T09:27:53;10.43;;;3.28;;
21424;SDS011;10873;51.132;16.848;2023-07-20T09:30:19;8.95;;;3.00;;
21424;SDS011;10873;51.132;16.848;2023-07-20T09:32:52;6.43;;;2.50;;
21424;SDS011;10873;51.132;16.848;2023-07-20T09:35:19;4.68;;;2.17;;
21424;SDS011;10873;51.132;16.848;2023-07-20T09:37:46;4.88;;;2.40;;
21424;SDS011;10873;51.132;16.848;2023-07-20T09:40:14;4.57;;;1.77;;
21424;SDS011;10873;51.132;16.848;2023-07-20T09:43:28;2.97;;;1.70;;
21424;SDS011;10873;51.132;16.848;2023-07-20T09:45:44;4.85;;;1.60;;
21424;SDS011;10873;51.132;16.848;2023-07-20T09:48:12;3.97;;;1.75;;
21424;SDS011;10873;51.132;16.848;2023-07-20T09:50:39;2.90;;;1.50;;
21424;SDS011;10873;51.132;16.848;2023-07-20T09:53:07;4.75;;;1.67;;
21424;SDS011;10873;51.132;16.848;2023-07-20T09:55:35;4.63;;;1.27;;
21424;SDS011;10873;51.132;16.848;2023-07-20T09:58:01;3.78;;;1.42;;
21424;SDS011;10873;51.132;16.848;2023-07-20T10:00:29;4.30;;;1.40;;
21424;SDS011;10873;51.132;16.848;2023-07-20T10:02:55;1.63;;;1.10;;
21424;SDS011;10873;51.132;16.848;2023-07-20T10:05:24;1.60;;;1.20;;
21424;SDS011;10873;51.132;16.848;2023-07-20T10:07:53;1.70;;;1.08;;
21424;SDS011;10873;51.132;16.848;2023-07-20T10:10:20;1.13;;;1.05;;
21424;SDS011;10873;51.132;16.848;2023-07-20T10:12:47;3.05;;;0.95;;
21424;SDS011;10873;51.132;16.848;2023-07-20T10:15:15;1.95;;;0.95;;
21424;SDS011;10873;51.132;16.848;2023-07-20T10:17:47;2.10;;;0.95;;
21424;SDS011;10873;51.132;16.848;2023-07-20T10:20:20;1.95;;;1.08;;
21424;SDS011;10873;51.132;16.848;2023-07-20T10:22:49;1.67;;;1.10;;
21424;SDS011;10873;51.132;16.848;2023-07-20T10:25:18;1.45;;;1.00;;
21424;SDS011;10873;51.132;16.848;2023-07-20T10:27:45;2.40;;;1.13;;
21424;SDS011;10873;51.132;16.848;2023-07-20T10:30:12;2.75;;;0.80;;
21424;SDS011;10873;51.132;16.848;2023-07-20T10:32:39;4.45;;;0.80;;
21424;SDS011;10873;51.132;16.848;2023-07-20T10:35:11;2.45;;;1.05;;
21424;SDS011;10873;51.132;16.848;2023-07-20T10:37:50;1.20;;;1.10;;
21424;SDS011;10873;51.132;16.848;2023-07-20T10:40:24;3.58;;;1.00;;
21424;SDS011;10873;51.132;16.848;2023-07-20T10:42:58;1.33;;;1.02;;
21424;SDS011;10873;51.132;16.848;2023-07-20T10:48:17;2.35;;;0.90;;
21424;SDS011;10873;51.132;16.848;2023-07-20T10:50:50;1.20;;;1.10;;
21424;SDS011;10873;51.132;16.848;2023-07-20T10:53:38;1.10;;;0.90;;
21424;SDS011;10873;51.132;16.848;2023-07-20T10:56:08;1.20;;;0.90;;
21424;SDS011;10873;51.132;16.848;2023-07-20T10:58:36;0.80;;;0.80;;
21424;SDS011;10873;51.132;16.848;2023-07-20T11:01:03;1.50;;;0.98;;
21424;SDS011;10873;51.132;16.848;2023-07-20T11:03:31;2.78;;;0.98;;
21424;SDS011;10873;51.132;16.848;2023-07-20T11:05:59;2.20;;;0.98;;
21424;SDS011;10873;51.132;16.848;2023-07-20T11:08:46;1.13;;;0.95;;
21424;SDS011;10873;51.132;16.848;2023-07-20T11:11:23;1.98;;;1.10;;
21424;SDS011;10873;51.132;16.848;2023-07-20T11:13:53;1.27;;;1.08;;
21424;SDS011;10873;51.132;16.848;2023-07-20T11:16:31;3.45;;;1.20;;
21424;SDS011;10873;51.132;16.848;2023-07-20T11:19:01;1.45;;;1.20;;
21424;SDS011;10873;51.132;16.848;2023-07-20T11:21:27;2.33;;;1.33;;
21424;SDS011;10873;51.132;16.848;2023-07-20T11:23:55;1.88;;;1.20;;
21424;SDS011;10873;51.132;16.848;2023-07-20T11:26:21;1.30;;;1.20;;
21424;SDS011;10873;51.132;16.848;2023-07-20T11:28:48;2.70;;;1.40;;
21424;SDS011;10873;51.132;16.848;2023-07-20T11:31:15;2.55;;;1.05;;
21424;SDS011;10873;51.132;16.848;2023-07-20T11:33:41;2.88;;;1.60;;
21424;SDS011;10873;51.132;16.848;2023-07-20T11:36:08;1.83;;;1.40;;
21424;SDS011;10873;51.132;16.848;2023-07-20T11:38:34;1.98;;;1.40;;
21424;SDS011;10873;51.132;16.848;2023-07-20T11:41:03;2.90;;;1.42;;
21424;SDS011;10873;51.132;16.848;2023-07-20T11:43:29;4.80;;;1.63;;
21424;SDS011;10873;51.132;16.848;2023-07-20T11:45:56;2.83;;;1.65;;
21424;SDS011;10873;51.132;16.848;2023-07-20T11:48:23;3.83;;;1.60;;
21424;SDS011;10873;51.132;16.848;2023-07-20T11:50:49;4.63;;;1.55;;
21424;SDS011;10873;51.132;16.848;2023-07-20T11:53:15;1.92;;;1.45;;
21424;SDS011;10873;51.132;16.848;2023-07-20T11:55:42;2.03;;;1.40;;
21424;SDS011;10873;51.132;16.848;2023-07-20T11:58:09;1.42;;;1.33;;
21424;SDS011;10873;51.132;16.848;2023-07-20T12:00:36;2.63;;;1.50;;
21424;SDS011;10873;51.132;16.848;2023-07-20T12:03:05;3.97;;;1.33;;
21424;SDS011;10873;51.132;16.848;2023-07-20T12:05:35;2.78;;;1.45;;
21424;SDS011;10873;51.132;16.848;2023-07-20T12:08:03;1.73;;;1.23;;
21424;SDS011;10873;51.132;16.848;2023-07-20T12:10:29;1.23;;;1.08;;
21424;SDS011;10873;51.132;16.848;2023-07-20T12:13:00;1.50;;;1.13;;
21424;SDS011;10873;51.132;16.848;2023-07-20T12:15:32;2.53;;;1.42;;
21424;SDS011;10873;51.132;16.848;2023-07-20T12:17:59;1.25;;;1.13;;
21424;SDS011;10873;51.132;16.848;2023-07-20T12:20:28;2.40;;;1.30;;
21424;SDS011;10873;51.132;16.848;2023-07-20T12:22:56;1.33;;;1.23;;
21424;SDS011;10873;51.132;16.848;2023-07-20T12:25:23;1.40;;;1.30;;
21424;SDS011;10873;51.132;16.848;2023-07-20T12:27:59;1.45;;;1.17;;
21424;SDS011;10873;51.132;16.848;2023-07-20T12:30:28;2.65;;;1.40;;
21424;SDS011;10873;51.132;16.848;2023-07-20T12:32:55;3.13;;;1.23;;
21424;SDS011;10873;51.132;16.848;2023-07-20T12:35:21;2.95;;;1.33;;
21424;SDS011;10873;51.132;16.848;2023-07-20T12:37:47;2.15;;;1.30;;
21424;SDS011;10873;51.132;16.848;2023-07-20T12:40:14;1.77;;;1.48;;
21424;SDS011;10873;51.132;16.848;2023-07-20T12:42:43;3.47;;;1.73;;
21424;SDS011;10873;51.132;16.848;2023-07-20T12:45:10;1.58;;;1.25;;
21424;SDS011;10873;51.132;16.848;2023-07-20T12:47:37;2.00;;;1.40;;
21424;SDS011;10873;51.132;16.848;2023-07-20T12:50:05;1.30;;;1.17;;
21424;SDS011;10873;51.132;16.848;2023-07-20T12:52:35;1.88;;;1.67;;
21424;SDS011;10873;51.132;16.848;2023-07-20T12:55:02;2.38;;;1.50;;
21424;SDS011;10873;51.132;16.848;2023-07-20T12:57:29;1.60;;;1.50;;
21424;SDS011;10873;51.132;16.848;2023-07-20T12:59:55;1.55;;;1.35;;
21424;SDS011;10873;51.132;16.848;2023-07-20T13:02:21;3.45;;;1.48;;
21424;SDS011;10873;51.132;16.848;2023-07-20T13:04:47;2.33;;;1.40;;
21424;SDS011;10873;51.132;16.848;2023-07-20T13:07:14;2.40;;;1.38;;
21424;SDS011;10873;51.132;16.848;2023-07-20T13:09:40;5.07;;;1.40;;
21424;SDS011;10873;51.132;16.848;2023-07-20T13:12:07;2.28;;;1.35;;
21424;SDS011;10873;51.132;16.848;2023-07-20T13:14:33;3.38;;;1.30;;
21424;SDS011;10873;51.132;16.848;2023-07-20T13:16:59;1.60;;;1.30;;
21424;SDS011;10873;51.132;16.848;2023-07-20T13:19:25;1.52;;;1.40;;
21424;SDS011;10873;51.132;16.848;2023-07-20T13:21:52;2.38;;;1.27;;
21424;SDS011;10873;51.132;16.848;2023-07-20T13:24:19;2.97;;;1.50;;
21424;SDS011;10873;51.132;16.848;2023-07-20T13:26:46;1.63;;;1.25;;
21424;SDS011;10873;51.132;16.848;2023-07-20T13:29:11;4.10;;;1.27;;
21424;SDS011;10873;51.132;16.848;2023-07-20T13:31:38;1.63;;;1.35;;
21424;SDS011;10873;51.132;16.848;2023-07-20T13:34:04;1.60;;;1.02;;
21424;SDS011;10873;51.132;16.848;2023-07-20T13:36:31;1.60;;;0.95;;
21424;SDS011;10873;51.132;16.848;2023-07-20T13:38:57;1.38;;;1.23;;
21424;SDS011;10873;51.132;16.848;2023-07-20T13:41:25;1.13;;;1.00;;
21424;SDS011;10873;51.132;16.848;2023-07-20T13:43:51;2.05;;;1.10;;
21424;SDS011;10873;51.132;16.848;2023-07-20T13:46:17;1.55;;;1.10;;
21424;SDS011;10873;51.132;16.848;2023-07-20T13:48:43;1.48;;;1.20;;
21424;SDS011;10873;51.132;16.848;2023-07-20T13:51:09;1.73;;;1.00;;
21424;SDS011;10873;51.132;16.848;2023-07-20T13:53:35;1.00;;;0.90;;
21424;SDS011;10873;51.132;16.848;2023-07-20T13:56:01;1.23;;;1.10;;
21424;SDS011;10873;51.132;16.848;2023-07-20T13:58:31;1.48;;;1.00;;
21424;SDS011;10873;51.132;16.848;2023-07-20T14:00:58;3.40;;;1.10;;
21424;SDS011;10873;51.132;16.848;2023-07-20T14:03:24;1.80;;;1.05;;
21424;SDS011;10873;51.132;16.848;2023-07-20T14:05:50;4.15;;;1.10;;
21424;SDS011;10873;51.132;16.848;2023-07-20T14:08:16;1.88;;;1.20;;
21424;SDS011;10873;51.132;16.848;2023-07-20T14:10:42;1.08;;;0.90;;
21424;SDS011;10873;51.132;16.848;2023-07-20T14:13:08;5.03;;;1.05;;
21424;SDS011;10873;51.132;16.848;2023-07-20T14:15:36;1.75;;;0.98;;
21424;SDS011;10873;51.132;16.848;2023-07-20T14:18:02;0.82;;;0.80;;
21424;SDS011;10873;51.132;16.848;2023-07-20T14:20:29;1.08;;;0.95;;
21424;SDS011;10873;51.132;16.848;2023-07-20T14:22:55;1.02;;;0.90;;
21424;SDS011;10873;51.132;16.848;2023-07-20T14:25:21;3.80;;;1.10;;
21424;SDS011;10873;51.132;16.848;2023-07-20T14:27:47;1.83;;;1.00;;
21424;SDS011;10873;51.132;16.848;2023-07-20T14:30:13;1.00;;;0.90;;
21424;SDS011;10873;51.132;16.848;2023-07-20T14:32:40;2.05;;;0.95;;
21424;SDS011;10873;51.132;16.848;2023-07-20T14:35:07;1.38;;;0.90;;